Pinkstaff, Illinois
Current Conditions -  °F | °C
As of 11:53 PM on Friday 31 Oct 2014 (Local Time) from KLWV Reporting Station
Overcast Overcast  
Wind Chill: 29°   Ceiling: 3000
Heat Index: 38°   Visibility: 10mi
Dew Point: 27°   Wind: 17mph
Humidity: 65%   Direction: 350°N
Pressure: 30.25"   Gusts: 29mph
Location:  38.7501°N, 87.6141°W
Report Text: KLWV 010453Z AUTO 35015G25KT 10SM BKN030 OVC035 03/M03 A3025 RMK AO2 SLP245 T00331028
Loading
Personal Weather Stations






























Interactive Weather Map
Tropical Storm Tracking
New forecast layout! Learn more

10-Day Weather Forecast

Advertisements
Track Severe Weather on mobile